Terminal Aerodrome Forecast
Issued by NWS

Home | Current Version | Previous Version | Text Only | Print | Product List | Glossary On
Versions: 1 2 3 4 5 6 7 8 9 10 11 12 13 14 15 16 17 18 19 20 21 22 23 24 25 26 27 28 29 30 31 32 33 34 35 36 37 38 39 40 41 42 43 44 45 46 47 48
000
FTUS41 KBOX 240524
TAFBAF
TAF
KBAF 240524Z 2406/2506 15006KT P6SM VCSH SCT008 BKN015
      WS020/17035KT
     FM241300 15011G23KT P6SM -RA OVC010
     FM242300 16013G24KT 3SM -RA BR OVC008 WS020/17045KT=

USA.gov is the U.S. government's official web portal to all federal, state and local government web resources and services.